createdAt,value
2019-04-20T00:01:19.908Z,11.80
2019-04-20T00:03:44.767Z,11.80
2019-04-20T00:06:13.128Z,11.70
2019-04-20T00:08:43.142Z,11.70
2019-04-20T00:11:19.807Z,11.70
2019-04-20T00:13:52.066Z,11.60
2019-04-20T00:16:12.643Z,11.60
2019-04-20T00:18:46.583Z,11.50
2019-04-20T00:21:29.127Z,11.50
2019-04-20T00:24:01.037Z,11.40
2019-04-20T00:27:03.633Z,11.30
2019-04-20T00:29:21.349Z,11.30
2019-04-20T00:31:45.812Z,11.30
2019-04-20T00:34:11.273Z,11.30
2019-04-20T00:36:32.786Z,11.30
2019-04-20T00:39:05.958Z,11.30
2019-04-20T00:41:35.094Z,11.20
2019-04-20T00:44:07.159Z,11.30
2019-04-20T00:46:46.755Z,11.20
2019-04-20T00:49:20.718Z,11.20
2019-04-20T00:51:52.610Z,11.20
2019-04-20T00:54:03.981Z,11.10
2019-04-20T00:56:34.904Z,11.10
2019-04-20T00:59:17.105Z,11.10
2019-04-20T01:01:52.309Z,11.10
2019-04-20T01:04:20.144Z,11.10
2019-04-20T01:06:57.451Z,11.00
2019-04-20T01:09:16.505Z,11.00
2019-04-20T01:11:47.929Z,10.90
2019-04-20T01:14:17.372Z,10.90
2019-04-20T01:16:53.919Z,10.90
2019-04-20T01:19:15.910Z,10.90
2019-04-20T01:21:53.396Z,10.90
2019-04-20T01:24:23.909Z,11.00
2019-04-20T01:26:50.596Z,10.90
2019-04-20T01:29:26.103Z,10.90
2019-04-20T01:32:03.646Z,10.90
2019-04-20T01:34:33.970Z,10.80
2019-04-20T01:37:04.389Z,10.80
2019-04-20T01:39:27.629Z,10.80
2019-04-20T01:41:47.705Z,10.80
2019-04-20T01:44:18.934Z,10.80
2019-04-20T01:46:52.844Z,10.80
2019-04-20T01:49:22.115Z,10.80
2019-04-20T01:51:59.218Z,10.70
2019-04-20T01:54:31.552Z,10.70
2019-04-20T01:56:59.685Z,10.60
2019-04-20T01:59:31.755Z,10.60
2019-04-20T02:01:59.629Z,10.60
2019-04-20T02:04:37.567Z,10.60
2019-04-20T02:07:06.660Z,10.50
2019-04-20T02:09:37.882Z,10.40
2019-04-20T02:12:10.830Z,10.40
2019-04-20T02:14:43.000Z,10.40
2019-04-20T02:17:16.778Z,10.40
2019-04-20T02:19:57.334Z,10.30
2019-04-20T02:22:15.715Z,10.20
2019-04-20T02:24:36.990Z,10.30
2019-04-20T02:27:06.210Z,10.20
2019-04-20T02:29:59.645Z,10.10
2019-04-20T02:32:26.628Z,10.20
2019-04-20T02:35:07.243Z,10.10
2019-04-20T02:37:56.885Z,10.10
2019-04-20T02:40:19.144Z,10.00
2019-04-20T02:42:51.497Z,10.00
2019-04-20T02:45:27.849Z,10.00
2019-04-20T02:47:51.331Z,9.90
2019-04-20T02:50:22.485Z,9.80
2019-04-20T02:55:16.962Z,9.70
2019-04-20T02:57:54.827Z,9.70
2019-04-20T03:02:31.410Z,9.60
2019-04-20T03:05:00.192Z,9.50
2019-04-20T03:07:31.587Z,9.50
2019-04-20T03:10:05.527Z,9.50
2019-04-20T03:12:38.813Z,9.50
2019-04-20T03:14:59.729Z,9.50
2019-04-20T03:17:38.703Z,9.40
2019-04-20T03:19:58.299Z,9.40
2019-04-20T03:22:51.247Z,9.30
2019-04-20T03:25:15.654Z,9.40
2019-04-20T03:27:36.595Z,9.30
2019-04-20T03:30:40.149Z,9.30
2019-04-20T03:33:05.951Z,9.20
2019-04-20T03:35:18.245Z,9.30
2019-04-20T03:37:48.703Z,9.20
2019-04-20T03:40:08.286Z,9.20
2019-04-20T03:42:26.712Z,9.10
2019-04-20T03:45:00.509Z,9.10
2019-04-20T03:47:35.919Z,9.10
2019-04-20T03:50:18.580Z,9.10
2019-04-20T03:52:57.764Z,9.00
2019-04-20T03:55:42.674Z,9.10
2019-04-20T03:58:18.645Z,9.00
2019-04-20T04:00:49.845Z,8.90
2019-04-20T04:03:49.938Z,9.00
2019-04-20T04:06:03.127Z,9.00
2019-04-20T04:08:27.849Z,8.90
2019-04-20T04:11:12.442Z,8.90
2019-04-20T04:13:22.897Z,9.00
2019-04-20T04:15:57.772Z,9.00
2019-04-20T04:18:31.159Z,9.00
2019-04-20T04:21:01.389Z,8.80
2019-04-20T04:23:40.388Z,8.80
2019-04-20T04:26:10.371Z,8.80
2019-04-20T04:28:42.298Z,8.80
2019-04-20T04:31:18.327Z,8.70
2019-04-20T04:36:10.502Z,8.70
2019-04-20T04:41:19.872Z,8.70
2019-04-20T04:43:44.346Z,8.70
2019-04-20T04:45:55.499Z,8.80
2019-04-20T04:48:29.964Z,8.70
2019-04-20T04:51:00.807Z,8.80
2019-04-20T04:53:37.458Z,8.70
2019-04-20T04:56:00.439Z,8.80
2019-04-20T04:58:25.642Z,8.80
2019-04-20T05:01:03.790Z,8.80
2019-04-20T05:03:41.300Z,8.80
2019-04-20T05:06:19.724Z,8.80
2019-04-20T05:08:36.607Z,8.80
2019-04-20T05:11:00.637Z,8.90
2019-04-20T05:13:37.003Z,9.00
2019-04-20T05:16:14.740Z,8.90
2019-04-20T05:19:05.140Z,8.90
2019-04-20T05:21:23.833Z,9.00
2019-04-20T05:23:44.610Z,9.00
2019-04-20T05:26:27.177Z,9.00
2019-04-20T05:28:53.590Z,9.00
2019-04-20T05:31:16.899Z,9.10
2019-04-20T05:34:10.833Z,9.00
2019-04-20T05:36:40.513Z,9.00
2019-04-20T05:39:14.446Z,9.00
2019-04-20T05:41:32.704Z,9.00
2019-04-20T05:44:04.835Z,9.00
2019-04-20T05:46:37.080Z,9.00
2019-04-20T05:49:11.693Z,9.00
2019-04-20T05:51:43.281Z,9.10
2019-04-20T05:54:15.539Z,9.20
2019-04-20T05:56:47.852Z,9.30
2019-04-20T05:59:11.659Z,9.40
2019-04-20T06:01:49.906Z,9.50
2019-04-20T06:04:10.252Z,9.60
2019-04-20T06:06:46.567Z,9.80
2019-04-20T06:09:16.631Z,9.80
2019-04-20T06:11:55.711Z,9.90
2019-04-20T06:14:05.858Z,10.10
2019-04-20T06:16:54.080Z,10.20
2019-04-20T06:19:26.244Z,10.30
2019-04-20T06:21:57.663Z,10.40
2019-04-20T06:24:30.258Z,10.50
2019-04-20T06:29:20.507Z,10.60
2019-04-20T06:31:52.040Z,10.70
2019-04-20T06:39:52.186Z,11.00
2019-04-20T06:49:33.237Z,11.10
2019-04-20T06:52:15.466Z,11.10
2019-04-20T06:54:55.175Z,11.20
2019-04-20T06:57:27.125Z,11.40
2019-04-20T06:59:52.521Z,11.60
2019-04-20T07:02:29.496Z,11.70
2019-04-20T07:04:55.571Z,11.90
2019-04-20T07:07:27.721Z,12.00
2019-04-20T07:12:25.322Z,12.20
2019-04-20T07:14:46.944Z,12.40
2019-04-20T07:17:52.527Z,12.50
2019-04-20T07:20:04.112Z,12.70
2019-04-20T07:22:37.634Z,12.90
2019-04-20T07:25:05.347Z,13.10
2019-04-20T07:27:36.908Z,13.30
2019-04-20T07:30:07.939Z,13.50
2019-04-20T07:32:42.643Z,13.60
2019-04-20T07:35:09.865Z,13.80
2019-04-20T07:40:16.209Z,13.90
2019-04-20T07:42:46.812Z,14.10
2019-04-20T07:45:21.636Z,14.30
2019-04-20T07:50:08.660Z,14.80
2019-04-20T07:52:36.695Z,14.90
2019-04-20T07:57:37.675Z,15.10
2019-04-20T08:00:13.461Z,15.20
2019-04-20T08:03:04.942Z,15.40
2019-04-20T08:05:33.686Z,15.40
2019-04-20T08:08:02.522Z,15.50
2019-04-20T08:10:33.775Z,15.50
2019-04-20T08:13:16.180Z,15.50
2019-04-20T08:15:55.562Z,15.50
2019-04-20T08:18:06.377Z,15.60
2019-04-20T08:20:43.591Z,15.50
2019-04-20T08:23:12.904Z,15.60
2019-04-20T08:25:30.623Z,15.70
2019-04-20T08:27:56.976Z,15.90
2019-04-20T08:30:46.715Z,16.00
2019-04-20T08:33:28.776Z,16.00
2019-04-20T08:36:01.235Z,16.00
2019-04-20T08:40:54.955Z,16.10
2019-04-20T08:43:38.166Z,16.20
2019-04-20T08:45:58.886Z,16.30
2019-04-20T08:48:28.727Z,16.20
2019-04-20T08:50:57.799Z,16.30
2019-04-20T08:53:33.505Z,16.30
2019-04-20T08:55:49.076Z,16.50
2019-04-20T08:58:07.286Z,16.60
2019-04-20T09:00:42.902Z,16.50
2019-04-20T09:03:12.943Z,16.60
2019-04-20T09:05:49.978Z,16.70
2019-04-20T09:08:14.437Z,16.80
2019-04-20T09:10:58.824Z,16.90
2019-04-20T09:13:19.735Z,17.10
2019-04-20T09:15:38.428Z,17.00
2019-04-20T09:18:22.553Z,17.10
2019-04-20T09:20:50.703Z,17.00
2019-04-20T09:23:26.498Z,17.20
2019-04-20T09:28:32.203Z,17.30
2019-04-20T09:31:12.313Z,17.40
2019-04-20T09:34:03.026Z,17.40
2019-04-20T09:36:40.067Z,17.70
2019-04-20T09:39:23.193Z,17.80
2019-04-20T09:42:01.680Z,17.60
2019-04-20T09:44:37.580Z,17.60
2019-04-20T09:47:03.288Z,17.70
2019-04-20T09:49:43.878Z,17.90
2019-04-20T09:52:13.311Z,18.20
2019-04-20T09:54:52.460Z,18.30
2019-04-20T09:57:20.446Z,18.50
2019-04-20T09:59:50.646Z,18.60
2019-04-20T10:02:08.860Z,18.70
2019-04-20T10:04:33.388Z,18.90
2019-04-20T10:07:06.685Z,18.90
2019-04-20T10:09:37.609Z,18.90
2019-04-20T10:12:03.751Z,19.00
2019-04-20T10:14:33.102Z,19.20
2019-04-20T10:17:02.160Z,19.30
2019-04-20T10:19:34.056Z,19.50
2019-04-20T10:22:00.948Z,19.50
2019-04-20T10:24:30.525Z,19.50
2019-04-20T10:26:59.178Z,19.50
2019-04-20T10:29:27.911Z,19.40
2019-04-20T10:31:59.238Z,19.40
2019-04-20T10:34:26.700Z,19.30
2019-04-20T10:36:57.513Z,19.40
2019-04-20T10:39:28.772Z,19.60
2019-04-20T10:42:00.713Z,19.80
2019-04-20T10:44:29.278Z,19.90
2019-04-20T10:46:58.818Z,19.80
2019-04-20T10:49:28.989Z,19.80
2019-04-20T10:51:57.872Z,19.90
2019-04-20T10:54:26.705Z,20.20
2019-04-20T10:56:55.487Z,20.10
2019-04-20T10:59:24.031Z,20.20
2019-04-20T11:01:53.790Z,20.20
2019-04-20T11:04:22.949Z,20.50
2019-04-20T11:06:52.448Z,20.60
2019-04-20T11:09:21.101Z,20.70
2019-04-20T11:11:50.285Z,20.80
2019-04-20T11:14:26.604Z,20.80
2019-04-20T11:16:49.046Z,20.90
2019-04-20T11:19:17.479Z,20.90
2019-04-20T11:21:46.384Z,20.70
2019-04-20T11:24:16.276Z,20.70
2019-04-20T11:26:45.114Z,20.90
2019-04-20T11:29:16.090Z,21.10
2019-04-20T11:31:50.617Z,21.00
2019-04-20T11:34:21.943Z,21.10
2019-04-20T11:36:45.463Z,21.20
2019-04-20T11:39:14.724Z,21.20
2019-04-20T11:41:43.626Z,21.30
2019-04-20T11:44:13.656Z,21.20
2019-04-20T11:46:42.953Z,21.50
2019-04-20T11:49:11.569Z,21.60
2019-04-20T11:51:41.353Z,21.60
2019-04-20T11:54:10.424Z,21.60
2019-04-20T11:56:43.496Z,21.80
2019-04-20T11:59:09.576Z,22.00
2019-04-20T12:01:47.883Z,22.10
2019-04-20T12:04:24.888Z,22.30
2019-04-20T12:06:43.364Z,22.30
2019-04-20T12:09:12.915Z,22.40
2019-04-20T12:11:56.266Z,22.30
2019-04-20T12:14:12.630Z,22.40
2019-04-20T12:16:41.691Z,22.50
2019-04-20T12:19:10.550Z,22.60
2019-04-20T12:21:39.413Z,22.70
2019-04-20T12:24:07.914Z,22.80
2019-04-20T12:26:36.593Z,22.90
2019-04-20T12:29:05.721Z,23.00
2019-04-20T12:31:35.545Z,23.00
2019-04-20T12:34:04.490Z,23.10
2019-04-20T12:36:33.260Z,23.10
2019-04-20T12:39:03.317Z,23.20
2019-04-20T12:41:39.763Z,23.20
2019-04-20T12:44:03.764Z,23.30
2019-04-20T12:46:33.947Z,23.30
2019-04-20T12:49:02.505Z,23.50
2019-04-20T12:51:38.735Z,23.40
2019-04-20T12:54:02.476Z,23.40
2019-04-20T12:56:31.113Z,23.50
2019-04-20T12:58:59.865Z,23.50
2019-04-20T13:01:28.447Z,23.60
2019-04-20T13:03:57.440Z,23.70
2019-04-20T13:06:26.075Z,23.60
2019-04-20T13:08:57.501Z,23.70
2019-04-20T13:11:26.738Z,23.90
2019-04-20T13:14:06.381Z,24.00
2019-04-20T13:16:36.511Z,24.00
2019-04-20T13:19:05.698Z,24.00
2019-04-20T13:21:34.884Z,24.00
2019-04-20T13:24:04.780Z,24.00
2019-04-20T13:26:35.065Z,24.10
2019-04-20T13:29:04.764Z,24.00
2019-04-20T13:31:33.768Z,24.00
2019-04-20T13:34:03.591Z,24.10
2019-04-20T13:36:32.598Z,24.20
2019-04-20T13:39:01.768Z,24.20
2019-04-20T13:41:31.728Z,24.10
2019-04-20T13:44:02.035Z,24.10
2019-04-20T13:46:31.247Z,24.30
2019-04-20T13:49:00.795Z,24.20
2019-04-20T13:51:30.670Z,24.30
2019-04-20T13:53:59.501Z,24.40
2019-04-20T13:56:28.391Z,24.60
2019-04-20T13:59:05.572Z,24.50
2019-04-20T14:01:36.986Z,24.50
2019-04-20T14:04:20.611Z,24.50
2019-04-20T14:06:51.164Z,24.60
2019-04-20T14:09:21.253Z,24.70
2019-04-20T14:11:49.899Z,24.80
2019-04-20T14:14:19.197Z,24.70
2019-04-20T14:16:47.851Z,24.70
2019-04-20T14:19:16.724Z,24.80
2019-04-20T14:21:46.156Z,24.90
2019-04-20T14:24:15.104Z,24.90
2019-04-20T14:26:44.572Z,25.10
2019-04-20T14:29:14.789Z,25.30
2019-04-20T14:31:43.809Z,25.40
2019-04-20T14:34:13.039Z,25.40
2019-04-20T14:36:41.596Z,25.50
2019-04-20T14:39:10.238Z,25.70
2019-04-20T14:41:40.221Z,26.00
2019-04-20T14:44:10.004Z,26.10
2019-04-20T14:46:39.844Z,26.30
2019-04-20T14:49:08.428Z,26.50
2019-04-20T14:51:37.490Z,26.50
2019-04-20T14:54:07.403Z,26.80
2019-04-20T14:56:35.904Z,27.10
2019-04-20T14:59:07.419Z,27.70
2019-04-20T15:01:44.837Z,28.50
2019-04-20T15:04:18.027Z,29.00
2019-04-20T15:06:44.432Z,29.60
2019-04-20T15:09:13.034Z,30.20
2019-04-20T15:11:44.254Z,30.70
2019-04-20T15:14:11.722Z,31.10
2019-04-20T15:16:40.453Z,31.00
2019-04-20T15:19:11.807Z,30.80
2019-04-20T15:21:41.997Z,30.50
2019-04-20T15:24:11.338Z,30.30
2019-04-20T15:26:40.894Z,30.20
2019-04-20T15:29:10.513Z,29.80
2019-04-20T15:31:39.041Z,29.40
2019-04-20T15:34:08.658Z,29.00
2019-04-20T15:36:38.103Z,28.70
2019-04-20T15:39:07.613Z,28.20
2019-04-20T15:41:36.055Z,27.60
2019-04-20T15:44:05.076Z,27.20
2019-04-20T15:46:34.744Z,26.80
2019-04-20T15:49:04.088Z,26.30
2019-04-20T15:51:34.167Z,25.90
2019-04-20T15:54:02.841Z,25.60
2019-04-20T15:56:31.334Z,25.50
2019-04-20T15:58:59.784Z,25.10
2019-04-20T16:01:30.258Z,24.90
2019-04-20T16:04:01.503Z,24.70
2019-04-20T16:06:31.619Z,24.50
2019-04-20T16:09:02.100Z,24.30
2019-04-20T16:11:31.056Z,24.10
2019-04-20T16:14:00.179Z,23.90
2019-04-20T16:16:30.015Z,24.00
2019-04-20T16:18:59.112Z,23.80
2019-04-20T16:21:30.817Z,23.70
2019-04-20T16:24:00.973Z,23.60
2019-04-20T16:26:31.611Z,23.40
2019-04-20T16:29:00.085Z,23.20
2019-04-20T16:31:28.874Z,23.00
2019-04-20T16:33:58.743Z,23.00
2019-04-20T16:36:28.484Z,22.90
2019-04-20T16:38:57.423Z,22.80
2019-04-20T16:41:26.426Z,22.60
2019-04-20T16:43:55.369Z,22.60
2019-04-20T16:46:25.681Z,22.50
2019-04-20T16:48:54.974Z,22.40
2019-04-20T16:51:24.975Z,22.20
2019-04-20T16:53:53.981Z,22.20
2019-04-20T16:56:22.597Z,22.20
2019-04-20T16:58:57.333Z,22.20
2019-04-20T17:01:21.623Z,22.20
2019-04-20T17:04:01.071Z,22.20
2019-04-20T17:06:22.193Z,22.20
2019-04-20T17:08:51.361Z,22.20
2019-04-20T17:11:21.526Z,22.10
2019-04-20T17:13:54.740Z,22.00
2019-04-20T17:16:21.732Z,21.90
2019-04-20T17:18:51.848Z,21.90
2019-04-20T17:21:24.093Z,21.80
2019-04-20T17:23:51.323Z,21.70
2019-04-20T17:26:23.020Z,21.60
2019-04-20T17:28:59.646Z,21.30
2019-04-20T17:31:43.035Z,21.10
2019-04-20T17:34:29.984Z,21.00
2019-04-20T17:36:42.215Z,20.80
2019-04-20T17:39:14.032Z,20.60
2019-04-20T17:42:00.724Z,20.40
2019-04-20T17:44:30.281Z,20.40
2019-04-20T17:46:56.866Z,20.40
2019-04-20T17:49:28.221Z,20.40
2019-04-20T17:52:08.489Z,20.30
2019-04-20T17:54:22.540Z,20.40
2019-04-20T17:56:52.137Z,20.50
2019-04-20T17:59:22.256Z,20.50
2019-04-20T18:02:20.386Z,20.40
2019-04-20T18:05:06.837Z,20.30
2019-04-20T18:07:36.646Z,20.10
2019-04-20T18:10:05.809Z,19.90
2019-04-20T18:12:23.149Z,19.70
2019-04-20T18:14:59.657Z,19.50
2019-04-20T18:17:32.033Z,19.20
2019-04-20T18:19:56.974Z,19.10
2019-04-20T18:22:25.928Z,18.90
2019-04-20T18:25:13.440Z,18.70
2019-04-20T18:27:41.580Z,18.60
2019-04-20T18:30:13.391Z,18.50
2019-04-20T18:32:31.526Z,18.30
2019-04-20T18:35:07.954Z,18.20
2019-04-20T18:37:36.332Z,18.00
2019-04-20T18:40:11.434Z,17.80
2019-04-20T18:42:42.058Z,18.10
2019-04-20T18:45:26.853Z,18.00
2019-04-20T18:47:55.026Z,17.80
2019-04-20T18:50:18.620Z,17.60
2019-04-20T18:52:40.164Z,17.40
2019-04-20T18:55:17.374Z,17.20
2019-04-20T18:57:39.767Z,17.00
2019-04-20T19:00:17.980Z,16.90
2019-04-20T19:02:45.429Z,16.70
2019-04-20T19:05:11.531Z,16.50
2019-04-20T19:07:51.509Z,16.40
2019-04-20T19:10:20.762Z,16.30
2019-04-20T19:12:51.774Z,16.20
2019-04-20T19:15:37.385Z,16.20
2019-04-20T19:18:00.184Z,16.00
2019-04-20T19:23:11.791Z,15.80
2019-04-20T19:25:42.404Z,15.60
2019-04-20T19:28:13.979Z,15.60
2019-04-20T19:30:49.557Z,15.40
2019-04-20T19:33:30.071Z,15.30
2019-04-20T19:35:52.160Z,15.20
2019-04-20T19:38:19.956Z,15.20
2019-04-20T19:40:51.452Z,15.00
2019-04-20T19:43:20.567Z,15.00
2019-04-20T19:46:24.154Z,14.90
2019-04-20T19:48:24.060Z,14.80
2019-04-20T19:51:06.859Z,14.70
2019-04-20T19:53:31.852Z,14.60
2019-04-20T19:55:56.640Z,14.50
2019-04-20T19:58:26.541Z,14.50
2019-04-20T20:00:49.104Z,14.40
2019-04-20T20:03:17.420Z,14.40
2019-04-20T20:05:48.964Z,14.40
2019-04-20T20:08:20.923Z,14.20
2019-04-20T20:10:46.640Z,14.20
2019-04-20T20:13:15.112Z,14.20
2019-04-20T20:15:45.113Z,14.20
2019-04-20T20:18:30.981Z,14.20
2019-04-20T20:21:00.851Z,14.30
2019-04-20T20:23:14.348Z,14.20
2019-04-20T20:25:46.469Z,14.20
2019-04-20T20:28:25.606Z,14.20
2019-04-20T20:30:56.882Z,14.10
2019-04-20T20:33:28.018Z,14.30
2019-04-20T20:35:53.559Z,14.70
2019-04-20T20:38:23.084Z,14.80
2019-04-20T20:40:54.523Z,14.80
2019-04-20T20:43:23.120Z,15.10
2019-04-20T20:46:01.445Z,15.20
2019-04-20T20:48:30.228Z,15.30
2019-04-20T20:51:06.458Z,15.40
2019-04-20T20:53:21.923Z,15.80
2019-04-20T20:55:48.596Z,16.20
2019-04-20T20:58:25.149Z,16.50
2019-04-20T21:00:56.171Z,16.90
2019-04-20T21:03:22.419Z,17.10
2019-04-20T21:05:47.374Z,17.30
2019-04-20T21:08:15.964Z,17.60
2019-04-20T21:10:46.429Z,17.70
2019-04-20T21:13:15.560Z,17.80
2019-04-20T21:15:52.255Z,17.80
2019-04-20T21:18:32.184Z,17.80
2019-04-20T21:21:02.147Z,17.80
2019-04-20T21:23:29.214Z,17.90
2019-04-20T21:26:04.631Z,18.00
2019-04-20T21:28:36.082Z,18.10
2019-04-20T21:31:08.090Z,18.10
2019-04-20T21:33:37.754Z,18.20
2019-04-20T21:36:05.270Z,18.20
2019-04-20T21:38:37.375Z,18.20
2019-04-20T21:41:09.440Z,18.20
2019-04-20T21:43:38.757Z,18.20
2019-04-20T21:46:08.972Z,18.10
2019-04-20T21:48:52.667Z,18.10
2019-04-20T21:51:22.884Z,18.10
2019-04-20T21:53:37.794Z,18.10
2019-04-20T21:56:08.001Z,18.10
2019-04-20T21:58:43.625Z,18.00
2019-04-20T22:01:16.397Z,18.10
2019-04-20T22:03:38.297Z,18.00
2019-04-20T22:06:08.788Z,18.00
2019-04-20T22:08:40.444Z,18.00
2019-04-20T22:11:08.138Z,18.10
2019-04-20T22:13:40.087Z,18.00
2019-04-20T22:16:10.547Z,17.90
2019-04-20T22:18:48.468Z,18.00
2019-04-20T22:21:19.903Z,18.00
2019-04-20T22:23:54.830Z,17.90
2019-04-20T22:26:17.614Z,17.90
2019-04-20T22:28:38.241Z,17.90
2019-04-20T22:31:06.792Z,17.90
2019-04-20T22:33:41.010Z,17.90
2019-04-20T22:36:09.456Z,17.80
2019-04-20T22:38:58.338Z,17.80
2019-04-20T22:41:27.685Z,17.80
2019-04-20T22:43:56.628Z,17.80
2019-04-20T22:46:31.542Z,17.80
2019-04-20T22:49:17.650Z,17.80
2019-04-20T22:51:39.852Z,17.80
2019-04-20T22:54:14.903Z,17.70
2019-04-20T22:56:39.458Z,17.70
2019-04-20T22:59:04.118Z,17.80
2019-04-20T23:01:32.118Z,17.70
2019-04-20T23:03:56.883Z,17.70
2019-04-20T23:06:33.455Z,17.70
2019-04-20T23:08:59.546Z,17.70
2019-04-20T23:11:29.148Z,17.70
2019-04-20T23:13:56.174Z,17.70
2019-04-20T23:16:28.808Z,17.60
2019-04-20T23:18:56.134Z,17.60
2019-04-20T23:21:25.843Z,17.60
2019-04-20T23:24:00.502Z,17.50
2019-04-20T23:26:31.302Z,17.40
2019-04-20T23:28:58.633Z,17.40
2019-04-20T23:31:25.671Z,17.40
2019-04-20T23:33:56.126Z,17.30
2019-04-20T23:36:32.837Z,17.30
2019-04-20T23:38:59.201Z,17.30
2019-04-20T23:41:26.025Z,17.20
2019-04-20T23:44:12.777Z,17.20
2019-04-20T23:47:02.085Z,17.10
2019-04-20T23:49:31.848Z,17.20
2019-04-20T23:52:24.284Z,17.10
2019-04-20T23:54:30.241Z,17.10
2019-04-20T23:56:58.078Z,17.10
2019-04-20T23:59:33.656Z,17.00
